Time;durP1;ratioP1;P1;durP2;ratioP2;P2;SDS_P1;SDS_P2;PMS_P1;PMS_P2;Temp;Humidity;BMP_temperature;BMP_pressure;BME280_temperature;BME280_humidity;BME280_pressure;Samples;Min_cycle;Max_cycle;Signal;HPM_P1;HPM_P2
2022/12/09 00:00:19;;;;;;;11.33;9.17;;;0.80;99.90;;;;;;5046494;28;20262;-61
2022/12/09 00:02:44;;;;;;;12.70;8.90;;;0.50;99.90;;;;;;5032528;28;20183;-62
2022/12/09 00:05:10;;;;;;;11.07;9.83;;;0.70;99.90;;;;;;5031132;28;20461;-61
2022/12/09 00:07:36;;;;;;;11.53;8.80;;;0.60;99.90;;;;;;5032607;28;20269;-61
2022/12/09 00:10:03;;;;;;;10.67;9.43;;;0.80;99.90;;;;;;5028517;28;20187;-61
2022/12/09 00:12:29;;;;;;;13.18;9.30;;;0.80;99.90;;;;;;5034301;28;20206;-61
2022/12/09 00:14:54;;;;;;;10.50;8.33;;;0.20;99.90;;;;;;5037290;28;20237;-61
2022/12/09 00:17:20;;;;;;;13.60;9.23;;;0.50;99.90;;;;;;5027107;28;20182;-60
2022/12/09 00:19:46;;;;;;;12.53;8.13;;;1.00;99.90;;;;;;5029498;28;20240;-60
2022/12/09 00:22:12;;;;;;;11.23;8.38;;;1.10;99.90;;;;;;5031073;28;20221;-60
2022/12/09 00:24:37;;;;;;;8.87;7.70;;;0.40;99.90;;;;;;5029553;28;20305;-61
2022/12/09 00:27:03;;;;;;;12.47;8.97;;;0.60;99.90;;;;;;5021442;28;20634;-63
2022/12/09 00:29:28;;;;;;;11.63;8.23;;;0.40;99.90;;;;;;5029397;28;20220;-61
2022/12/09 00:31:54;;;;;;;11.13;9.10;;;0.30;99.90;;;;;;5026889;28;20368;-62
2022/12/09 00:34:20;;;;;;;9.37;8.37;;;0.40;99.90;;;;;;5029474;28;20822;-61
2022/12/09 00:36:46;;;;;;;12.10;8.02;;;-0.10;99.90;;;;;;5028604;28;20193;-61
2022/12/09 00:39:11;;;;;;;11.70;8.83;;;0.20;99.90;;;;;;5028292;28;20565;-63
2022/12/09 00:41:37;;;;;;;9.23;7.57;;;0.30;99.90;;;;;;5026188;28;20201;-63
2022/12/09 00:44:03;;;;;;;11.10;8.00;;;0.40;99.90;;;;;;5032630;28;20182;-62
2022/12/09 00:46:29;;;;;;;10.65;9.38;;;0.30;99.90;;;;;;5036391;28;20197;-63
2022/12/09 00:48:54;;;;;;;14.83;12.17;;;0.30;99.90;;;;;;5036110;28;20186;-62
2022/12/09 00:51:23;;;;;;;14.90;11.20;;;0.40;99.90;;;;;;5031797;28;20314;-63
2022/12/09 00:53:53;;;;;;;11.48;9.20;;;0.20;99.90;;;;;;5032775;28;20445;-62
2022/12/09 00:56:20;;;;;;;13.90;9.15;;;0.00;99.90;;;;;;5046282;28;20667;-61
2022/12/09 00:58:46;;;;;;;10.55;8.77;;;0.10;99.90;;;;;;5034395;28;20194;-61
2022/12/09 01:01:11;;;;;;;9.40;8.30;;;0.00;99.90;;;;;;5032804;28;20183;-60
2022/12/09 01:03:38;;;;;;;12.20;9.17;;;-0.40;99.90;;;;;;5033015;28;20182;-62
2022/12/09 01:06:11;;;;;;;11.60;8.43;;;0.10;99.90;;;;;;5034033;28;20198;-63
2022/12/09 01:08:37;;;;;;;12.10;9.75;;;0.20;99.90;;;;;;5034840;28;20186;-63
2022/12/09 01:11:14;;;;;;;11.50;8.07;;;0.20;99.90;;;;;;5035055;28;20185;-63
2022/12/09 01:13:40;;;;;;;11.60;8.60;;;0.10;99.90;;;;;;5036670;28;20267;-62
2022/12/09 01:16:16;;;;;;;12.17;9.37;;;0.10;99.90;;;;;;5037957;28;20252;-64
2022/12/09 01:18:42;;;;;;;15.32;13.63;;;0.10;99.90;;;;;;5031166;28;20218;-63
2022/12/09 01:21:07;;;;;;;10.57;8.73;;;0.10;99.90;;;;;;5029607;28;20269;-61
2022/12/09 01:23:33;;;;;;;11.90;7.53;;;0.10;99.90;;;;;;5032615;28;20329;-63
2022/12/09 01:25:59;;;;;;;9.43;8.30;;;0.00;99.90;;;;;;5047920;28;20313;-63
2022/12/09 01:28:24;;;;;;;10.67;7.83;;;-0.10;99.90;;;;;;5032333;28;20186;-63
2022/12/09 01:30:50;;;;;;;14.10;10.00;;;-0.10;99.90;;;;;;5029789;28;20275;-63
2022/12/09 01:33:16;;;;;;;9.60;7.93;;;-0.10;99.90;;;;;;5030361;28;20198;-62
2022/12/09 01:35:41;;;;;;;9.33;7.50;;;0.00;99.90;;;;;;5036277;28;20263;-62
2022/12/09 01:38:07;;;;;;;10.27;7.13;;;-0.20;99.90;;;;;;5030418;28;20197;-61
2022/12/09 01:40:33;;;;;;;8.70;6.87;;;-0.10;99.90;;;;;;5033461;28;20179;-62
2022/12/09 01:42:58;;;;;;;10.03;7.50;;;0.20;99.90;;;;;;5032643;28;20228;-62
2022/12/09 01:45:29;;;;;;;9.00;7.50;;;0.10;99.90;;;;;;5031085;28;20256;-62
2022/12/09 01:48:04;;;;;;;9.05;7.45;;;0.20;99.90;;;;;;5029937;28;20210;-62
2022/12/09 01:50:32;;;;;;;8.02;6.60;;;-0.20;99.90;;;;;;5032113;28;20275;-61
2022/12/09 01:52:58;;;;;;;14.30;11.38;;;0.10;99.90;;;;;;5031191;28;20276;-62
2022/12/09 01:55:25;;;;;;;15.65;12.10;;;0.00;99.90;;;;;;5030076;28;20209;-64
2022/12/09 01:57:51;;;;;;;17.38;11.48;;;0.20;99.90;;;;;;5032172;28;20170;-63
2022/12/09 02:00:17;;;;;;;11.00;8.07;;;0.20;99.90;;;;;;5030895;28;20240;-63
2022/12/09 02:02:47;;;;;;;8.48;7.57;;;-0.20;99.90;;;;;;5030381;28;20205;-61
2022/12/09 02:05:13;;;;;;;8.93;7.47;;;-0.40;99.90;;;;;;5047058;28;20214;-63
2022/12/09 02:07:39;;;;;;;8.70;7.00;;;0.00;99.90;;;;;;5023953;28;20718;-61
2022/12/09 02:10:11;;;;;;;9.57;8.17;;;-0.10;99.90;;;;;;5028220;28;20195;-63
2022/12/09 02:13:03;;;;;;;11.75;7.63;;;0.00;99.90;;;;;;5034611;28;20640;-63
2022/12/09 02:15:43;;;;;;;7.20;6.50;;;-0.30;99.90;;;;;;5031987;28;20206;-63
2022/12/09 02:18:22;;;;;;;10.63;6.95;;;-0.50;99.90;;;;;;5029562;28;20198;-62
2022/12/09 02:20:59;;;;;;;9.85;7.22;;;-0.20;99.90;;;;;;5030510;28;20721;-62
2022/12/09 02:23:25;;;;;;;10.93;8.80;;;-0.50;99.90;;;;;;5022942;28;20269;-62
2022/12/09 02:26:02;;;;;;;9.77;8.10;;;-0.40;99.90;;;;;;5027882;28;20802;-61
2022/12/09 02:28:55;;;;;;;11.02;8.32;;;-0.50;99.90;;;;;;5037294;28;20183;-63
2022/12/09 02:32:03;;;;;;;9.50;8.60;;;-0.60;99.90;;;;;;5035896;28;20218;-62
2022/12/09 02:34:34;;;;;;;12.93;9.65;;;-0.50;99.90;;;;;;5005675;28;20213;-62
2022/12/09 02:37:12;;;;;;;10.40;7.70;;;-0.40;99.90;;;;;;5029870;28;20256;-62
2022/12/09 02:39:52;;;;;;;10.02;7.15;;;-0.60;99.90;;;;;;5029651;28;20186;-62
2022/12/09 02:42:21;;;;;;;8.85;7.05;;;-0.40;99.90;;;;;;5031113;28;20224;-63
2022/12/09 02:44:49;;;;;;;7.65;6.50;;;-0.80;99.90;;;;;;5031626;28;20683;-63
2022/12/09 02:47:19;;;;;;;12.48;7.50;;;-0.20;99.90;;;;;;5025629;28;20194;-62
2022/12/09 02:49:49;;;;;;;9.90;8.68;;;-1.00;99.90;;;;;;5031139;28;20194;-61
2022/12/09 02:52:16;;;;;;;8.00;6.75;;;-0.60;99.90;;;;;;5027925;28;20214;-62
2022/12/09 02:54:43;;;;;;;10.20;7.63;;;0.10;99.90;;;;;;5031562;28;20568;-62
2022/12/09 02:57:18;;;;;;;11.95;8.35;;;-0.40;99.90;;;;;;5033727;28;20640;-62
2022/12/09 02:59:44;;;;;;;13.13;11.73;;;-0.40;99.90;;;;;;5029196;28;20219;-64
2022/12/09 03:02:11;;;;;;;9.43;8.30;;;-1.20;99.90;;;;;;5030497;28;20659;-64
2022/12/09 03:04:43;;;;;;;10.57;8.38;;;-0.50;99.90;;;;;;5036502;28;20217;-61
2022/12/09 03:07:23;;;;;;;9.30;7.53;;;-0.70;99.90;;;;;;5031898;28;20190;-63
2022/12/09 03:09:57;;;;;;;8.57;7.68;;;-0.60;99.90;;;;;;5035791;28;20190;-63
2022/12/09 03:12:29;;;;;;;9.55;7.80;;;-0.60;99.90;;;;;;5027216;28;20204;-63
2022/12/09 03:14:56;;;;;;;9.98;7.88;;;-1.30;99.90;;;;;;5030129;28;20583;-63
2022/12/09 03:17:43;;;;;;;11.20;8.10;;;-0.60;99.90;;;;;;5028084;28;20592;-63
2022/12/09 03:20:15;;;;;;;10.50;7.75;;;-0.80;99.90;;;;;;5029608;28;20193;-64
2022/12/09 03:22:44;;;;;;;9.82;8.25;;;-0.90;99.90;;;;;;5031496;28;20176;-63
2022/12/09 03:25:20;;;;;;;8.27;7.47;;;-0.70;99.90;;;;;;5033253;28;20213;-63
2022/12/09 03:27:57;;;;;;;10.43;7.97;;;-1.00;99.90;;;;;;5037260;28;20287;-63
2022/12/09 03:30:23;;;;;;;9.90;7.63;;;-0.70;99.90;;;;;;5037152;28;20190;-63
2022/12/09 03:32:51;;;;;;;7.60;6.50;;;-0.70;99.90;;;;;;5030531;28;20219;-62
2022/12/09 03:35:22;;;;;;;9.27;7.45;;;-0.70;99.90;;;;;;5029364;28;20993;-62
2022/12/09 03:37:49;;;;;;;9.10;7.30;;;-0.90;99.90;;;;;;5033380;28;20288;-63
2022/12/09 03:40:20;;;;;;;9.07;7.57;;;-0.70;99.90;;;;;;5029095;28;20196;-62
2022/12/09 03:43:23;;;;;;;9.18;7.45;;;-0.60;99.90;;;;;;5030753;28;20197;-62
2022/12/09 03:45:52;;;;;;;8.18;6.97;;;-0.60;99.90;;;;;;5011373;28;22558;-64
2022/12/09 03:48:18;;;;;;;8.15;7.18;;;-0.50;99.90;;;;;;5028069;28;20193;-63
2022/12/09 03:50:51;;;;;;;9.60;7.30;;;-0.70;99.90;;;;;;5030317;28;20202;-63
2022/12/09 03:53:32;;;;;;;10.40;7.30;;;-0.90;99.90;;;;;;5027878;28;20214;-63
2022/12/09 03:56:15;;;;;;;8.93;7.07;;;-0.70;99.90;;;;;;5032007;28;20678;-63
2022/12/09 03:58:43;;;;;;;10.95;7.90;;;-0.70;99.90;;;;;;5027409;28;20186;-61
2022/12/09 04:01:09;;;;;;;9.25;7.93;;;-0.70;99.90;;;;;;5027794;28;20218;-63
2022/12/09 04:03:36;;;;;;;7.88;6.95;;;-0.50;99.90;;;;;;5030028;28;20182;-63
2022/12/09 04:06:02;;;;;;;7.18;6.43;;;-0.60;99.90;;;;;;5029260;28;20198;-62
2022/12/09 04:08:27;;;;;;;7.73;6.90;;;-0.80;99.90;;;;;;5026656;28;20273;-62
2022/12/09 04:10:53;;;;;;;9.70;7.63;;;-0.70;99.90;;;;;;5029693;28;20186;-63
2022/12/09 04:13:19;;;;;;;8.90;7.60;;;-0.70;99.90;;;;;;5030060;28;20217;-63
2022/12/09 04:15:44;;;;;;;10.13;7.80;;;-0.60;99.90;;;;;;5029082;28;20206;-63
2022/12/09 04:18:10;;;;;;;9.97;7.03;;;-0.70;99.90;;;;;;5028341;28;20206;-62
2022/12/09 04:20:35;;;;;;;8.27;7.10;;;-0.40;99.90;;;;;;5029089;28;20202;-63
2022/12/09 04:23:01;;;;;;;8.90;7.10;;;-0.70;99.90;;;;;;5031266;28;20186;-62
2022/12/09 04:25:27;;;;;;;13.03;6.87;;;-0.30;99.90;;;;;;5033765;28;20981;-62
2022/12/09 04:27:53;;;;;;;10.23;7.30;;;-0.90;99.90;;;;;;5025234;28;20194;-63
2022/12/09 04:30:18;;;;;;;8.00;7.20;;;-0.80;99.90;;;;;;5034273;28;20590;-63
2022/12/09 04:32:44;;;;;;;8.70;7.03;;;-0.60;99.90;;;;;;5031768;28;20242;-63
2022/12/09 04:35:09;;;;;;;8.97;7.00;;;-0.90;99.90;;;;;;5033607;28;20203;-62
2022/12/09 04:37:36;;;;;;;9.93;7.90;;;-0.80;99.90;;;;;;5031407;28;20414;-62
2022/12/09 04:40:03;;;;;;;9.85;7.57;;;-0.80;99.90;;;;;;5039559;28;20255;-62
2022/12/09 04:42:29;;;;;;;10.30;8.27;;;-0.80;99.90;;;;;;5033037;28;20227;-61
2022/12/09 04:44:55;;;;;;;10.60;7.47;;;-0.30;99.90;;;;;;5031634;28;20738;-61
2022/12/09 04:47:20;;;;;;;13.33;8.37;;;-0.50;99.90;;;;;;5032908;28;20190;-63
2022/12/09 04:49:46;;;;;;;9.13;7.67;;;-0.10;99.90;;;;;;5033531;28;20246;-61
2022/12/09 04:52:11;;;;;;;12.83;9.30;;;-0.50;99.90;;;;;;5032266;28;20213;-63
2022/12/09 04:54:37;;;;;;;15.70;11.50;;;-1.10;99.90;;;;;;5029689;28;20198;-63
2022/12/09 04:57:03;;;;;;;10.70;9.37;;;-0.60;99.90;;;;;;5032309;28;20183;-63
2022/12/09 04:59:30;;;;;;;8.27;7.47;;;-0.80;99.90;;;;;;5032003;28;20190;-63
2022/12/09 05:01:55;;;;;;;9.23;7.30;;;-0.80;99.90;;;;;;5031963;28;20198;-62
2022/12/09 05:04:21;;;;;;;8.37;7.10;;;-0.60;99.90;;;;;;5034193;28;20206;-63
2022/12/09 05:06:47;;;;;;;8.57;7.60;;;-0.60;99.90;;;;;;5032601;28;20178;-62
2022/12/09 05:09:12;;;;;;;9.37;7.50;;;-0.20;99.90;;;;;;5032235;28;20663;-63
2022/12/09 05:11:39;;;;;;;9.83;7.93;;;-0.60;99.90;;;;;;5032846;28;20297;-61
2022/12/09 05:14:04;;;;;;;10.68;7.60;;;-0.90;99.90;;;;;;5032471;28;20226;-63
2022/12/09 05:16:30;;;;;;;11.30;8.80;;;-0.50;99.90;;;;;;5031748;28;20214;-63
2022/12/09 05:18:58;;;;;;;9.80;8.00;;;-0.80;99.90;;;;;;5030190;28;20530;-63
2022/12/09 05:21:24;;;;;;;10.27;7.85;;;-0.80;99.90;;;;;;5032458;28;20402;-62
2022/12/09 05:23:49;;;;;;;14.37;8.63;;;-0.70;99.90;;;;;;5026413;28;20687;-63
2022/12/09 05:26:19;;;;;;;13.63;9.27;;;-0.60;99.90;;;;;;5030878;28;20222;-63
2022/12/09 05:28:45;;;;;;;10.13;8.00;;;-0.60;99.90;;;;;;5026676;28;20239;-62
2022/12/09 05:31:13;;;;;;;8.60;7.70;;;-0.50;99.90;;;;;;5028082;28;20277;-62
2022/12/09 05:33:40;;;;;;;8.38;7.30;;;-0.50;99.90;;;;;;5029405;28;20178;-63
2022/12/09 05:36:17;;;;;;;10.10;8.07;;;-0.40;99.90;;;;;;5044886;28;20344;-61
2022/12/09 05:38:43;;;;;;;9.02;7.55;;;-1.00;99.90;;;;;;5023583;28;20910;-63
2022/12/09 05:41:09;;;;;;;10.18;8.43;;;-0.40;99.90;;;;;;5030457;28;20553;-63
2022/12/09 05:43:35;;;;;;;13.65;9.27;;;-0.40;99.90;;;;;;5031825;28;20170;-63
2022/12/09 05:46:02;;;;;;;10.73;7.13;;;-0.50;99.90;;;;;;5028016;28;20206;-62
2022/12/09 05:48:29;;;;;;;10.82;8.40;;;-0.60;99.90;;;;;;5022355;28;20189;-62
2022/12/09 05:51:03;;;;;;;11.68;8.68;;;-1.00;99.90;;;;;;5032924;28;20194;-63
2022/12/09 05:53:29;;;;;;;9.52;8.52;;;-0.90;99.90;;;;;;5031586;28;20590;-62
2022/12/09 05:55:55;;;;;;;9.45;8.00;;;-0.60;99.90;;;;;;5028494;28;20671;-64
2022/12/09 05:58:21;;;;;;;11.82;7.20;;;-0.50;99.90;;;;;;5025714;28;20183;-61
2022/12/09 06:00:47;;;;;;;12.23;7.13;;;-0.30;99.90;;;;;;5031763;28;20178;-63
2022/12/09 06:03:13;;;;;;;8.85;7.47;;;-0.50;99.90;;;;;;5029396;28;20201;-61
2022/12/09 06:05:39;;;;;;;9.02;8.13;;;-1.00;99.90;;;;;;5032542;28;20221;-63
2022/12/09 06:08:05;;;;;;;9.38;8.05;;;-0.20;99.90;;;;;;5027505;28;20272;-62
2022/12/09 06:10:31;;;;;;;8.43;7.53;;;-0.30;99.90;;;;;;5029918;28;20248;-63
2022/12/09 06:12:57;;;;;;;8.97;7.40;;;-0.50;99.90;;;;;;5029474;28;20217;-62
2022/12/09 06:15:23;;;;;;;8.70;7.40;;;-0.40;99.90;;;;;;5029076;28;20201;-64
2022/12/09 06:17:49;;;;;;;9.57;7.85;;;-0.30;99.90;;;;;;5024467;28;20179;-63
2022/12/09 06:20:16;;;;;;;9.50;8.50;;;-0.10;99.90;;;;;;5029098;28;20198;-63
2022/12/09 06:22:42;;;;;;;9.23;7.47;;;-0.30;99.90;;;;;;5043422;28;20958;-63
2022/12/09 06:25:09;;;;;;;10.53;8.53;;;-0.40;99.90;;;;;;5030188;28;20214;-61
2022/12/09 06:27:34;;;;;;;9.05;7.70;;;-0.20;99.90;;;;;;5027331;28;20194;-64
2022/12/09 06:30:01;;;;;;;10.17;8.70;;;0.20;99.90;;;;;;5027054;28;20207;-63
2022/12/09 06:32:27;;;;;;;9.55;8.55;;;-0.50;99.90;;;;;;5030308;28;20206;-64
2022/12/09 06:34:53;;;;;;;11.00;8.50;;;-0.30;99.90;;;;;;5030852;28;20309;-65
2022/12/09 06:37:18;;;;;;;11.47;9.27;;;-0.20;99.90;;;;;;5029055;28;20185;-62
2022/12/09 06:39:45;;;;;;;9.17;8.00;;;-0.10;99.90;;;;;;5029755;28;20248;-64
2022/12/09 06:42:11;;;;;;;11.05;8.35;;;0.10;99.90;;;;;;5031426;28;20213;-63
2022/12/09 06:44:38;;;;;;;11.07;7.60;;;0.10;99.90;;;;;;5021861;28;20291;-62
2022/12/09 06:47:05;;;;;;;10.48;8.10;;;-0.50;99.90;;;;;;5027431;28;20186;-63
2022/12/09 06:49:31;;;;;;;13.02;9.55;;;-0.20;99.90;;;;;;5028433;28;20179;-63
2022/12/09 06:51:56;;;;;;;8.73;7.80;;;0.10;99.90;;;;;;5026081;28;20273;-61
2022/12/09 06:54:22;;;;;;;8.53;7.63;;;0.00;99.90;;;;;;5028980;28;20210;-63
2022/12/09 06:56:48;;;;;;;10.60;7.90;;;0.00;99.90;;;;;;5028440;28;20193;-62
2022/12/09 06:59:13;;;;;;;12.50;9.10;;;0.10;99.90;;;;;;5028090;28;20237;-62
2022/12/09 07:01:39;;;;;;;10.03;9.00;;;-0.20;99.90;;;;;;5025296;28;20237;-63
2022/12/09 07:04:05;;;;;;;11.60;8.30;;;-0.10;99.90;;;;;;5045980;28;20868;-63
2022/12/09 07:06:43;;;;;;;12.18;8.38;;;0.00;99.90;;;;;;5055824;28;20555;-64
2022/12/09 07:09:14;;;;;;;14.18;8.55;;;-0.10;99.90;;;;;;5039653;28;20185;-62
2022/12/09 07:11:45;;;;;;;10.63;9.07;;;-0.10;99.90;;;;;;5037945;28;20190;-64
2022/12/09 07:14:12;;;;;;;11.18;9.80;;;0.00;99.90;;;;;;5045261;28;20201;-66
2022/12/09 07:16:38;;;;;;;13.10;9.10;;;0.40;99.90;;;;;;5040140;28;20535;-64
2022/12/09 07:19:04;;;;;;;11.02;8.63;;;0.10;99.90;;;;;;5045078;28;20185;-65
2022/12/09 07:21:30;;;;;;;13.25;9.38;;;0.10;99.90;;;;;;5034205;28;20348;-66
2022/12/09 07:24:00;;;;;;;11.57;8.63;;;-0.10;99.90;;;;;;5033465;28;22481;-67
2022/12/09 07:26:26;;;;;;;11.75;9.35;;;-0.60;99.90;;;;;;5039111;28;20206;-65
2022/12/09 07:28:51;;;;;;;10.63;9.03;;;0.60;99.90;;;;;;5039722;28;20908;-66
2022/12/09 07:31:19;;;;;;;21.00;10.17;;;0.20;99.90;;;;;;5038089;28;20178;-66
2022/12/09 07:33:45;;;;;;;12.07;8.75;;;;;;;;;;5041291;28;20182;-67
2022/12/09 07:36:12;;;;;;;13.10;10.13;;;0.20;99.90;;;;;;5039730;28;20249;-67
2022/12/09 07:38:38;;;;;;;13.27;10.20;;;0.30;99.90;;;;;;5035037;28;20190;-66
2022/12/09 07:41:08;;;;;;;10.40;8.98;;;0.50;99.90;;;;;;5041656;28;20260;-65
2022/12/09 07:43:34;;;;;;;13.65;9.13;;;0.50;99.90;;;;;;5036834;28;20194;-70
2022/12/09 07:46:07;;;;;;;13.25;11.55;;;0.80;99.90;;;;;;5036179;28;20626;-68
2022/12/09 07:48:33;;;;;;;15.10;10.98;;;1.10;99.90;;;;;;5042506;28;20557;-65
2022/12/09 07:51:03;;;;;;;13.70;10.57;;;0.70;99.90;;;;;;5035756;28;20216;-70
2022/12/09 07:53:29;;;;;;;10.95;9.82;;;0.90;99.90;;;;;;5036339;28;20178;-66
2022/12/09 07:55:59;;;;;;;11.90;9.93;;;1.00;99.90;;;;;;5037238;28;20307;-66
2022/12/09 07:58:25;;;;;;;11.60;9.70;;;0.80;99.90;;;;;;5040310;28;20191;-66
2022/12/09 08:00:50;;;;;;;13.73;10.00;;;0.90;99.90;;;;;;5036052;28;20248;-63
2022/12/09 08:03:16;;;;;;;13.00;9.60;;;0.20;99.90;;;;;;5037115;28;20198;-65
2022/12/09 08:05:46;;;;;;;12.07;9.93;;;0.90;99.90;;;;;;5039457;28;20703;-62
2022/12/09 08:08:12;;;;;;;12.35;10.52;;;1.50;99.90;;;;;;5038484;28;20190;-63
2022/12/09 08:10:37;;;;;;;13.67;9.67;;;1.20;99.90;;;;;;5038456;28;20596;-67
2022/12/09 08:13:03;;;;;;;13.23;9.90;;;1.30;99.90;;;;;;5035688;28;20213;-66
2022/12/09 08:15:29;;;;;;;14.07;9.57;;;1.20;99.90;;;;;;5040157;28;20251;-67
2022/12/09 08:17:55;;;;;;;13.13;11.17;;;1.60;99.90;;;;;;5021685;28;20656;-65
2022/12/09 08:20:20;;;;;;;12.05;9.93;;;1.50;99.90;;;;;;5027334;28;20198;-66
2022/12/09 08:22:46;;;;;;;9.47;8.47;;;1.40;99.90;;;;;;5035067;28;20179;-66
2022/12/09 08:25:12;;;;;;;10.87;9.77;;;1.40;99.90;;;;;;5024548;28;20206;-64
2022/12/09 08:27:37;;;;;;;12.07;9.57;;;1.60;99.90;;;;;;5023566;28;20178;-64
2022/12/09 08:30:04;;;;;;;12.73;9.53;;;1.80;99.90;;;;;;5024521;28;20758;-64
2022/12/09 08:32:29;;;;;;;9.85;8.45;;;1.70;99.90;;;;;;5027494;28;20207;-65
2022/12/09 08:34:55;;;;;;;13.50;9.60;;;1.80;99.90;;;;;;5027110;28;20235;-65
2022/12/09 08:37:21;;;;;;;10.83;9.73;;;2.30;99.90;;;;;;5025622;28;20194;-65
2022/12/09 08:39:47;;;;;;;11.05;9.77;;;2.40;99.90;;;;;;5023913;28;20199;-64
2022/12/09 08:42:13;;;;;;;10.70;9.60;;;2.60;99.90;;;;;;5025485;28;20240;-67
2022/12/09 08:44:38;;;;;;;12.40;9.27;;;2.80;99.90;;;;;;5015715;28;20709;-66
2022/12/09 08:47:04;;;;;;;12.33;10.60;;;2.70;99.90;;;;;;5025396;28;20548;-64
2022/12/09 08:49:30;;;;;;;12.68;9.63;;;2.60;99.90;;;;;;5026783;28;20191;-63
2022/12/09 08:51:56;;;;;;;11.23;9.32;;;2.80;99.90;;;;;;5027019;28;20191;-64
2022/12/09 08:54:22;;;;;;;10.10;9.07;;;2.90;99.90;;;;;;5026153;28;20202;-64
2022/12/09 08:56:50;;;;;;;14.23;9.70;;;3.30;99.90;;;;;;5022257;28;20194;-64
2022/12/09 08:59:16;;;;;;;11.55;9.55;;;3.40;99.90;;;;;;5028702;28;20441;-64
2022/12/09 09:01:42;;;;;;;14.13;10.60;;;3.60;99.90;;;;;;5020507;28;20183;-63
2022/12/09 09:04:10;;;;;;;11.73;9.48;;;3.60;99.90;;;;;;5025061;28;20207;-63
2022/12/09 09:06:38;;;;;;;11.27;9.10;;;3.50;99.90;;;;;;5028571;28;20211;-62
2022/12/09 09:09:05;;;;;;;12.32;9.30;;;3.50;99.90;;;;;;5025008;28;20282;-64
2022/12/09 09:11:31;;;;;;;11.00;9.50;;;3.40;99.90;;;;;;5029576;28;20197;-63
2022/12/09 09:13:57;;;;;;;12.18;9.45;;;3.00;99.90;;;;;;5024069;28;20676;-64
2022/12/09 09:16:25;;;;;;;13.03;9.73;;;3.00;99.90;;;;;;5021689;28;20187;-66
2022/12/09 09:18:51;;;;;;;12.93;9.40;;;3.00;99.90;;;;;;5025859;28;20832;-64
2022/12/09 09:21:20;;;;;;;16.95;10.73;;;3.00;99.90;;;;;;5025240;28;20188;-64
2022/12/09 09:23:47;;;;;;;10.63;8.40;;;3.20;99.90;;;;;;5023305;28;20188;-64
2022/12/09 09:26:20;;;;;;;12.57;10.13;;;3.20;99.90;;;;;;5030777;28;20782;-63
2022/12/09 09:28:46;;;;;;;13.05;10.93;;;3.30;99.90;;;;;;5029575;28;20212;-64
2022/12/09 09:31:18;;;;;;;14.10;10.70;;;3.60;99.90;;;;;;5023998;28;20193;-62
2022/12/09 09:33:44;;;;;;;13.45;11.10;;;3.30;99.90;;;;;;5018965;28;20215;-63
2022/12/09 09:36:19;;;;;;;11.95;10.68;;;3.00;99.90;;;;;;5020290;28;20199;-63
2022/12/09 09:38:45;;;;;;;12.10;10.55;;;3.20;99.90;;;;;;5018667;28;20182;-63
2022/12/09 09:41:41;;;;;;;13.23;10.48;;;3.50;99.90;;;;;;5017241;28;20188;-63
2022/12/09 09:44:27;;;;;;;15.00;10.45;;;3.40;99.90;;;;;;5018161;28;20212;-65
2022/12/09 09:46:54;;;;;;;13.23;9.98;;;3.70;99.90;;;;;;5027292;28;20202;-63
2022/12/09 09:49:48;;;;;;;13.10;10.65;;;3.60;99.90;;;;;;5029143;28;20248;-65
2022/12/09 09:52:20;;;;;;;14.57;11.52;;;3.80;99.90;;;;;;5026550;28;20575;-65
2022/12/09 09:54:46;;;;;;;13.90;10.85;;;3.50;99.90;;;;;;5024337;28;20691;-65
2022/12/09 09:57:15;;;;;;;12.10;9.67;;;3.20;99.90;;;;;;5023628;28;20240;-65
2022/12/09 09:59:56;;;;;;;15.07;12.20;;;3.40;99.90;;;;;;5018813;28;20211;-63
2022/12/09 10:02:25;;;;;;;13.10;9.90;;;3.60;99.90;;;;;;5024163;28;20274;-64
2022/12/09 10:04:55;;;;;;;13.18;10.90;;;3.60;99.90;;;;;;5023084;28;20264;-66
2022/12/09 10:07:30;;;;;;;15.93;10.95;;;3.30;99.90;;;;;;5014360;28;20259;-68
2022/12/09 10:10:25;;;;;;;17.25;12.35;;;3.10;99.90;;;;;;5015567;28;20183;-66
2022/12/09 10:13:08;;;;;;;18.65;11.43;;;3.50;99.90;;;;;;5018916;28;20186;-63
2022/12/09 10:15:43;;;;;;;18.33;14.30;;;3.60;99.90;;;;;;5021633;28;20552;-66
2022/12/09 10:18:21;;;;;;;13.43;10.90;;;3.70;99.90;;;;;;5021976;28;20218;-67
2022/12/09 10:20:47;;;;;;;14.85;11.70;;;3.80;99.90;;;;;;5023006;28;20212;-63
2022/12/09 10:23:14;;;;;;;12.63;10.73;;;3.80;99.90;;;;;;5026720;28;20195;-65
2022/12/09 10:25:49;;;;;;;15.63;10.85;;;3.70;99.90;;;;;;5023934;28;20560;-64
2022/12/09 10:28:44;;;;;;;14.68;12.10;;;4.00;99.90;;;;;;5024497;28;20656;-63
2022/12/09 10:31:10;;;;;;;12.95;11.55;;;3.80;99.90;;;;;;5023001;28;20722;-63
2022/12/09 10:33:38;;;;;;;15.50;11.95;;;4.10;99.90;;;;;;5014772;28;20284;-64
2022/12/09 10:36:06;;;;;;;16.23;11.85;;;4.00;99.90;;;;;;5021678;28;20207;-64
2022/12/09 10:38:36;;;;;;;12.85;10.85;;;4.00;99.90;;;;;;5024658;28;20192;-64
2022/12/09 10:44:24;;;;;;;15.73;12.18;;;3.80;99.90;;;;;;5024918;28;20218;-64
2022/12/09 10:47:03;;;;;;;15.85;12.25;;;3.60;99.90;;;;;;5024471;28;20187;-64
2022/12/09 10:49:37;;;;;;;14.48;11.38;;;3.70;99.90;;;;;;5018349;28;20664;-64
2022/12/09 10:52:13;;;;;;;16.08;11.40;;;3.80;99.90;;;;;;5025976;28;20172;-64
2022/12/09 10:54:45;;;;;;;16.65;12.38;;;3.90;99.90;;;;;;5028770;28;20234;-65
2022/12/09 10:57:11;;;;;;;15.73;12.10;;;3.70;99.90;;;;;;5029262;28;20668;-64
2022/12/09 10:59:39;;;;;;;13.73;11.30;;;3.30;99.90;;;;;;5030508;28;20187;-63
2022/12/09 11:02:08;;;;;;;19.55;12.10;;;3.20;99.90;;;;;;5024498;28;20334;-64
2022/12/09 11:04:37;;;;;;;14.70;12.20;;;3.70;99.90;;;;;;5017790;28;20223;-65
2022/12/09 11:07:18;;;;;;;21.75;13.00;;;3.60;99.90;;;;;;5026395;28;20174;-65
2022/12/09 11:09:49;;;;;;;17.15;12.93;;;3.30;99.90;;;;;;5025081;28;20182;-64
2022/12/09 11:12:17;;;;;;;18.63;12.20;;;3.20;99.90;;;;;;5026073;28;20181;-64
2022/12/09 11:14:52;;;;;;;15.68;12.30;;;2.90;99.90;;;;;;5026020;28;20645;-65
2022/12/09 11:17:22;;;;;;;14.90;12.80;;;3.70;99.90;;;;;;5020865;28;20306;-66
2022/12/09 11:20:16;;;;;;;16.13;13.10;;;3.60;99.90;;;;;;5009294;28;20660;-64
2022/12/09 11:22:43;;;;;;;19.52;13.35;;;3.50;99.90;;;;;;5020224;28;20577;-64
2022/12/09 11:25:14;;;;;;;13.20;11.63;;;3.70;99.90;;;;;;5020045;28;20302;-64
2022/12/09 11:27:47;;;;;;;18.60;13.52;;;3.20;99.90;;;;;;5028688;28;20193;-65
2022/12/09 11:30:16;;;;;;;17.33;12.85;;;3.70;99.90;;;;;;5010241;28;20249;-67
2022/12/09 11:33:11;;;;;;;17.02;11.93;;;4.20;99.90;;;;;;5019326;28;20900;-66
2022/12/09 11:35:43;;;;;;;15.45;12.48;;;3.90;99.90;;;;;;5016401;28;20330;-62
2022/12/09 11:38:30;;;;;;;16.77;12.88;;;3.80;99.90;;;;;;5023965;28;20508;-62
2022/12/09 11:41:04;;;;;;;14.90;12.13;;;3.50;99.90;;;;;;5021496;28;20219;-61
2022/12/09 11:43:49;;;;;;;13.98;11.32;;;3.60;99.90;;;;;;5021185;28;20305;-62
2022/12/09 11:46:23;;;;;;;15.75;11.80;;;4.00;99.90;;;;;;5012936;28;20249;-68
2022/12/09 11:48:57;;;;;;;16.45;12.65;;;4.10;99.90;;;;;;5026655;28;20204;-65
2022/12/09 11:51:36;;;;;;;16.25;12.75;;;3.80;99.90;;;;;;5024688;28;20783;-62
2022/12/09 11:54:21;;;;;;;18.17;12.57;;;4.20;99.90;;;;;;5029882;28;20184;-63
2022/12/09 11:56:49;;;;;;;17.05;12.80;;;4.20;99.90;;;;;;5031461;28;20656;-64
2022/12/09 11:59:20;;;;;;;17.05;14.00;;;4.10;99.90;;;;;;5040929;28;20187;-64
2022/12/09 12:01:56;;;;;;;14.63;12.45;;;4.10;99.90;;;;;;5027819;28;20303;-62
2022/12/09 12:04:54;;;;;;;13.95;12.25;;;4.00;99.90;;;;;;5027097;28;20209;-63
2022/12/09 12:07:44;;;;;;;21.45;13.52;;;3.90;99.90;;;;;;5026696;28;20237;-66
2022/12/09 12:10:27;;;;;;;17.10;13.00;;;3.30;99.90;;;;;;5027992;28;20325;-64
2022/12/09 12:13:25;;;;;;;16.08;13.05;;;4.00;99.90;;;;;;5031500;28;20267;-65
2022/12/09 12:15:59;;;;;;;16.85;13.55;;;3.80;99.90;;;;;;5037770;28;20219;-65
2022/12/09 12:18:31;;;;;;;19.08;12.57;;;4.00;99.90;;;;;;5025234;28;20273;-64
2022/12/09 12:21:40;;;;;;;17.55;13.88;;;3.90;99.90;;;;;;5030785;28;20186;-65
2022/12/09 12:24:21;;;;;;;18.00;14.07;;;4.00;99.90;;;;;;5027738;28;20318;-64
2022/12/09 12:27:12;;;;;;;18.45;13.77;;;3.90;99.90;;;;;;5027125;28;20190;-65
2022/12/09 12:29:48;;;;;;;17.05;12.15;;;3.90;99.90;;;;;;5038330;28;20290;-66
2022/12/09 12:32:21;;;;;;;19.55;14.75;;;4.10;99.90;;;;;;5026517;28;20182;-65
2022/12/09 12:34:52;;;;;;;18.27;14.43;;;3.60;99.90;;;;;;5039749;28;20242;-66
2022/12/09 12:38:01;;;;;;;18.13;14.32;;;3.10;99.90;;;;;;5020380;28;20274;-65
2022/12/09 12:40:36;;;;;;;17.65;12.73;;;3.80;99.90;;;;;;5014123;28;20237;-65
2022/12/09 12:46:27;;;;;;;15.32;12.85;;;3.90;99.90;;;;;;5026844;28;20300;-63
2022/12/09 12:49:02;;;;;;;17.92;12.63;;;3.90;99.90;;;;;;5024138;28;20210;-64
2022/12/09 12:51:36;;;;;;;18.30;14.00;;;4.20;99.90;;;;;;5030062;28;20190;-64
2022/12/09 12:54:20;;;;;;;15.52;13.38;;;3.90;99.90;;;;;;5020946;28;20739;-63
2022/12/09 12:56:59;;;;;;;18.48;14.27;;;4.00;99.90;;;;;;5026043;28;20191;-62
2022/12/09 12:59:31;;;;;;;18.60;14.18;;;4.00;99.90;;;;;;5016612;28;20218;-63
2022/12/09 13:02:06;;;;;;;17.33;13.30;;;3.80;99.90;;;;;;5026108;28;20267;-64
2022/12/09 13:04:42;;;;;;;21.75;15.50;;;4.10;99.90;;;;;;5029152;28;20226;-64